createdAt,value
2018-07-28T00:02:05.402Z,99135.73
2018-07-28T00:04:41.407Z,99132.52
2018-07-28T00:10:37.218Z,99128.59
2018-07-28T00:13:20.771Z,99130.36
2018-07-28T00:16:03.521Z,99126.80
2018-07-28T00:18:43.043Z,99126.40
2018-07-28T00:21:42.682Z,99120.93
2018-07-28T00:24:23.271Z,99112.42
2018-07-28T00:27:00.703Z,99114.41
2018-07-28T00:29:41.946Z,99108.39
2018-07-28T00:32:20.656Z,99110.33
2018-07-28T00:35:07.544Z,99111.80
2018-07-28T00:37:45.628Z,99104.30
2018-07-28T00:40:24.817Z,99100.75
2018-07-28T00:43:04.410Z,99098.38
2018-07-28T00:46:04.739Z,99096.05
2018-07-28T00:48:46.689Z,99093.54
2018-07-28T00:51:29.692Z,99092.68
2018-07-28T00:54:05.951Z,99091.44
2018-07-28T00:56:46.035Z,99094.03
2018-07-28T00:59:23.635Z,99094.48
2018-07-28T01:02:11.596Z,99092.63
2018-07-28T01:04:54.698Z,99100.59
2018-07-28T01:07:39.237Z,99093.75
2018-07-28T01:10:13.540Z,99088.98
2018-07-28T01:12:48.078Z,99086.60
2018-07-28T01:15:20.735Z,99082.20
2018-07-28T01:17:53.489Z,99081.03
2018-07-28T01:20:26.699Z,99079.23
2018-07-28T01:22:59.877Z,99078.31
2018-07-28T01:25:32.425Z,99077.38
2018-07-28T01:28:05.773Z,99071.59
2018-07-28T01:30:38.506Z,99094.30
2018-07-28T01:33:11.378Z,99124.44
2018-07-28T01:35:46.119Z,99119.33
2018-07-28T01:38:18.974Z,99124.70
2018-07-28T01:40:51.651Z,99127.62
2018-07-28T01:43:25.844Z,99117.96
2018-07-28T01:45:58.914Z,99087.89
2018-07-28T01:48:31.737Z,99076.64
2018-07-28T01:51:05.008Z,99072.03
2018-07-28T01:53:37.862Z,99073.52
2018-07-28T01:56:10.707Z,99087.76
2018-07-28T01:58:44.882Z,99096.27
2018-07-28T02:01:17.705Z,99088.08
2018-07-28T02:03:51.470Z,99081.05
2018-07-28T02:06:25.360Z,99075.83
2018-07-28T02:08:58.030Z,99082.54
2018-07-28T02:11:31.922Z,99071.09
2018-07-28T02:14:07.707Z,99058.89
2018-07-28T02:16:40.706Z,99058.09
2018-07-28T02:19:14.114Z,99050.34
2018-07-28T02:21:47.686Z,99044.48
2018-07-28T02:24:20.506Z,99047.03
2018-07-28T02:26:56.414Z,99040.46
2018-07-28T02:29:29.744Z,99036.64
2018-07-28T02:32:02.588Z,99034.53
2018-07-28T02:34:35.343Z,99031.77
2018-07-28T02:37:10.504Z,99023.64
2018-07-28T02:39:43.303Z,99022.95
2018-07-28T02:42:16.180Z,99021.64
2018-07-28T02:44:51.359Z,99024.42
2018-07-28T02:47:25.084Z,99024.33
2018-07-28T02:49:57.937Z,99021.42
2018-07-28T02:52:31.179Z,99017.52
2018-07-28T02:55:04.582Z,99012.49
2018-07-28T02:57:38.233Z,99010.43
2018-07-28T03:00:15.203Z,99008.82
2018-07-28T03:02:48.313Z,99029.08
2018-07-28T03:05:21.678Z,99058.43
2018-07-28T03:07:55.046Z,99109.67
2018-07-28T03:10:28.077Z,99114.86
2018-07-28T03:13:00.685Z,99082.74
2018-07-28T03:15:35.667Z,99095.86
2018-07-28T03:18:08.829Z,99082.28
2018-07-28T03:20:42.218Z,99103.02
2018-07-28T03:23:16.755Z,99094.63
2018-07-28T03:25:50.560Z,99074.50
2018-07-28T03:28:23.225Z,99123.54
2018-07-28T03:30:57.413Z,99085.05
2018-07-28T03:33:30.191Z,99060.45
2018-07-28T03:36:03.330Z,99127.71
2018-07-28T03:38:36.570Z,99109.90
2018-07-28T03:41:13.402Z,99078.86
2018-07-28T03:43:46.030Z,99117.55
2018-07-28T03:46:20.114Z,99103.06
2018-07-28T03:48:52.905Z,99109.38
2018-07-28T03:51:25.570Z,99104.18
2018-07-28T03:54:00.022Z,99091.11
2018-07-28T03:56:32.845Z,99106.19
2018-07-28T03:59:06.338Z,99095.37
2018-07-28T04:01:39.002Z,99081.05
2018-07-28T04:04:11.793Z,99090.00
2018-07-28T04:06:44.314Z,99095.02
2018-07-28T04:09:20.385Z,99080.25
2018-07-28T04:11:53.583Z,99079.37
2018-07-28T04:14:26.480Z,99089.91
2018-07-28T04:16:59.203Z,99083.27
2018-07-28T04:19:34.210Z,99070.75
2018-07-28T04:22:07.277Z,99088.06
2018-07-28T04:24:41.595Z,99072.05
2018-07-28T04:27:15.478Z,99067.17
2018-07-28T04:29:48.190Z,99076.84
2018-07-28T04:32:20.764Z,99064.64
2018-07-28T04:34:53.767Z,99060.38
2018-07-28T04:37:27.340Z,99063.42
2018-07-28T04:40:05.001Z,99054.32
2018-07-28T04:42:38.862Z,99043.75
2018-07-28T04:45:13.886Z,99048.61
2018-07-28T04:47:48.174Z,99046.73
2018-07-28T04:50:22.906Z,99044.30
2018-07-28T04:52:55.635Z,99040.52
2018-07-28T04:55:28.883Z,99029.06
2018-07-28T04:58:01.513Z,99025.27
2018-07-28T05:00:35.840Z,99025.70
2018-07-28T05:03:10.538Z,99029.33
2018-07-28T05:05:43.220Z,99022.92
2018-07-28T05:08:17.524Z,99019.47
2018-07-28T05:10:52.578Z,99022.46
2018-07-28T05:13:25.689Z,99025.08
2018-07-28T05:15:58.470Z,99009.27
2018-07-28T05:18:32.421Z,99001.29
2018-07-28T05:21:05.338Z,99003.28
2018-07-28T05:23:38.035Z,99012.45
2018-07-28T05:26:11.242Z,99016.13
2018-07-28T05:28:45.540Z,99011.91
2018-07-28T05:31:21.835Z,99010.63
2018-07-28T05:33:54.493Z,99012.34
2018-07-28T05:36:27.946Z,99010.63
2018-07-28T05:39:01.153Z,99001.20
2018-07-28T05:41:33.863Z,99000.82
2018-07-28T05:44:07.564Z,99008.01
2018-07-28T05:46:40.941Z,99011.00
2018-07-28T05:49:14.167Z,99015.14
2018-07-28T05:51:46.726Z,99015.16
2018-07-28T05:54:19.802Z,99032.66
2018-07-28T05:56:53.059Z,99069.13
2018-07-28T05:59:25.726Z,99092.95
2018-07-28T06:02:00.190Z,99110.73
2018-07-28T06:04:32.901Z,99107.53
2018-07-28T06:07:07.560Z,99102.55
2018-07-28T06:09:41.771Z,99102.53
2018-07-28T06:12:15.958Z,99111.13
2018-07-28T06:14:48.801Z,99109.84
2018-07-28T06:17:23.726Z,99105.62
2018-07-28T06:19:56.509Z,99103.67
2018-07-28T06:22:29.123Z,99097.91
2018-07-28T06:25:05.268Z,99097.50
2018-07-28T06:27:38.965Z,99104.80
2018-07-28T06:30:15.181Z,99142.91
2018-07-28T06:32:48.246Z,99166.24
2018-07-28T06:35:22.024Z,99158.00
2018-07-28T06:37:54.935Z,99154.78
2018-07-28T06:40:28.990Z,99152.66
2018-07-28T06:43:01.942Z,99162.05
2018-07-28T06:45:34.631Z,99158.55
2018-07-28T06:48:10.103Z,99123.63
2018-07-28T06:50:46.909Z,99127.81
2018-07-28T06:53:22.986Z,99116.50
2018-07-28T06:55:57.491Z,99122.27
2018-07-28T06:58:30.419Z,99130.72
2018-07-28T07:01:05.170Z,99141.20
2018-07-28T07:03:38.986Z,99156.73
2018-07-28T07:06:14.766Z,99165.42
2018-07-28T07:08:48.503Z,99158.86
2018-07-28T07:11:21.275Z,99150.84
2018-07-28T07:13:56.395Z,99150.03
2018-07-28T07:16:39.119Z,99166.12
2018-07-28T07:19:12.496Z,99166.95
2018-07-28T07:21:45.595Z,99169.01
2018-07-28T07:24:19.879Z,99170.37
2018-07-28T07:26:55.295Z,99169.39
2018-07-28T07:29:33.370Z,99171.38
2018-07-28T07:32:07.967Z,99178.02
2018-07-28T07:34:41.845Z,99175.72
2018-07-28T07:37:16.666Z,99184.95
2018-07-28T07:39:50.595Z,99191.45
2018-07-28T07:42:32.803Z,99188.66
2018-07-28T07:45:07.207Z,99191.36
2018-07-28T07:47:40.796Z,99185.39
2018-07-28T07:50:15.110Z,99185.12
2018-07-28T07:52:49.265Z,99186.09
2018-07-28T07:55:22.711Z,99173.55
2018-07-28T07:57:57.001Z,99161.73
2018-07-28T08:00:30.302Z,99158.85
2018-07-28T08:03:04.085Z,99161.41
2018-07-28T08:05:37.816Z,99163.98
2018-07-28T08:08:13.821Z,99165.30
2018-07-28T08:10:48.384Z,99166.44
2018-07-28T08:13:21.193Z,99166.89
2018-07-28T08:15:58.299Z,99157.31
2018-07-28T08:18:31.163Z,99147.56
2018-07-28T08:21:03.925Z,99148.98
2018-07-28T08:23:40.388Z,99162.91
2018-07-28T08:26:13.232Z,99183.89
2018-07-28T08:28:50.416Z,99202.03
2018-07-28T08:31:24.148Z,99213.00
2018-07-28T08:33:56.998Z,99220.60
2018-07-28T08:36:30.197Z,99229.62
2018-07-28T08:39:05.246Z,99238.06
2018-07-28T08:41:39.449Z,99243.61
2018-07-28T08:44:13.986Z,99247.98
2018-07-28T08:46:47.024Z,99250.64
2018-07-28T08:49:20.681Z,99246.82
2018-07-28T08:51:54.034Z,99242.41
2018-07-28T08:54:28.758Z,99244.34
2018-07-28T08:57:03.100Z,99244.78
2018-07-28T08:59:37.038Z,99243.78
2018-07-28T09:02:11.392Z,99244.56
2018-07-28T09:04:44.438Z,99245.84
2018-07-28T09:07:19.110Z,99248.19
2018-07-28T09:09:53.323Z,99255.39
2018-07-28T09:12:26.072Z,99259.70
2018-07-28T09:14:59.496Z,99257.61
2018-07-28T09:17:33.853Z,99260.31
2018-07-28T09:20:08.781Z,99268.36
2018-07-28T09:22:42.516Z,99275.38
2018-07-28T09:25:28.948Z,99272.18
2018-07-28T09:28:03.430Z,99269.20
2018-07-28T09:30:36.288Z,99270.95
2018-07-28T09:33:10.532Z,99272.98
2018-07-28T09:35:44.769Z,99272.61
2018-07-28T09:38:19.758Z,99267.48
2018-07-28T09:40:55.298Z,99254.99
2018-07-28T09:43:28.105Z,99248.21
2018-07-28T09:46:01.760Z,99251.69
2018-07-28T09:48:44.935Z,99253.89
2018-07-28T09:51:18.873Z,99260.97
2018-07-28T09:53:59.677Z,99256.00
2018-07-28T09:56:38.540Z,99248.41
2018-07-28T09:59:13.357Z,99246.77
2018-07-28T10:01:46.615Z,99252.69
2018-07-28T10:04:20.497Z,99245.20
2018-07-28T10:06:53.314Z,99237.70
2018-07-28T10:09:26.016Z,99237.36
2018-07-28T10:11:59.156Z,99239.34
2018-07-28T10:14:32.671Z,99245.11
2018-07-28T10:17:06.747Z,99248.27
2018-07-28T10:19:42.538Z,99245.16
2018-07-28T10:22:19.597Z,99246.97
2018-07-28T10:24:55.026Z,99240.96
2018-07-28T10:27:31.927Z,99239.81
2018-07-28T10:30:08.725Z,99235.94
2018-07-28T10:33:06.415Z,99244.63
2018-07-28T10:35:41.091Z,99243.08
2018-07-28T10:38:15.890Z,99239.67
2018-07-28T10:40:50.283Z,99235.86
2018-07-28T10:43:24.118Z,99246.27
2018-07-28T10:45:57.511Z,99244.08
2018-07-28T10:48:31.983Z,99251.01
2018-07-28T10:51:07.006Z,99248.84
2018-07-28T10:53:43.378Z,99253.31
2018-07-28T10:56:18.544Z,99252.41
2018-07-28T10:58:55.470Z,99258.47
2018-07-28T11:01:29.031Z,99254.58
2018-07-28T11:04:02.464Z,99254.91
2018-07-28T11:06:54.128Z,99253.31
2018-07-28T11:09:40.680Z,99253.28
2018-07-28T11:12:17.291Z,99250.98
2018-07-28T11:14:53.175Z,99253.00
2018-07-28T11:17:26.795Z,99249.53
2018-07-28T11:20:06.968Z,99246.69
2018-07-28T11:22:40.823Z,99247.70
2018-07-28T11:25:13.850Z,99243.20
2018-07-28T11:27:48.571Z,99235.03
2018-07-28T11:30:21.822Z,99229.55
2018-07-28T11:33:18.258Z,99221.27
2018-07-28T11:36:13.681Z,99219.78
2018-07-28T11:39:10.515Z,99214.33
2018-07-28T11:42:06.353Z,99214.86
2018-07-28T11:45:15.353Z,99218.01
2018-07-28T11:47:54.106Z,99218.28
2018-07-28T11:50:32.635Z,99218.53
2018-07-28T11:53:13.466Z,99217.08
2018-07-28T11:55:51.695Z,99222.54
2018-07-28T11:58:29.700Z,99216.39
2018-07-28T12:01:04.674Z,99216.42
2018-07-28T12:03:38.374Z,99221.74
2018-07-28T12:06:11.523Z,99221.53
2018-07-28T12:08:44.766Z,99224.02
2018-07-28T12:11:17.471Z,99219.46
2018-07-28T12:13:50.442Z,99210.45
2018-07-28T12:16:24.849Z,99221.22
2018-07-28T12:18:59.895Z,99222.36
2018-07-28T12:21:33.449Z,99227.06
2018-07-28T12:24:07.084Z,99228.72
2018-07-28T12:26:41.027Z,99226.84
2018-07-28T12:29:15.462Z,99224.52
2018-07-28T12:31:52.099Z,99220.83
2018-07-28T12:34:27.306Z,99227.22
2018-07-28T12:37:00.624Z,99227.45
2018-07-28T12:39:34.067Z,99227.88
2018-07-28T12:42:08.698Z,99221.52
2018-07-28T12:44:42.538Z,99222.93
2018-07-28T12:47:18.637Z,99224.92
2018-07-28T12:49:51.630Z,99234.98
2018-07-28T12:52:26.201Z,99240.09
2018-07-28T12:55:00.548Z,99238.89
2018-07-28T12:57:36.792Z,99243.05
2018-07-28T13:00:14.151Z,99244.02
2018-07-28T13:02:47.367Z,99241.38
2018-07-28T13:05:20.754Z,99242.18
2018-07-28T13:07:54.970Z,99251.61
2018-07-28T13:10:29.095Z,99252.02
2018-07-28T13:13:03.097Z,99247.84
2018-07-28T13:15:36.834Z,99246.07
2018-07-28T13:18:11.327Z,99240.31
2018-07-28T13:20:55.711Z,99240.27
2018-07-28T13:23:33.325Z,99245.14
2018-07-28T13:26:07.364Z,99243.97
2018-07-28T13:28:41.366Z,99250.20
2018-07-28T13:31:16.319Z,99250.98
2018-07-28T13:33:51.297Z,99248.17
2018-07-28T13:36:25.847Z,99245.87
2018-07-28T13:39:01.190Z,99247.71
2018-07-28T13:41:36.208Z,99241.00
2018-07-28T13:44:11.260Z,99233.62
2018-07-28T13:46:46.865Z,99237.14
2018-07-28T13:49:24.356Z,99242.14
2018-07-28T13:51:58.798Z,99236.41
2018-07-28T13:54:32.527Z,99226.09
2018-07-28T13:57:17.753Z,99239.37
2018-07-28T13:59:51.587Z,99240.37
2018-07-28T14:02:29.376Z,99234.44
2018-07-28T14:05:05.041Z,99229.16
2018-07-28T14:07:40.455Z,99228.53
2018-07-28T14:10:13.311Z,99228.30
2018-07-28T14:12:53.953Z,99214.30
2018-07-28T14:15:26.790Z,99226.96
2018-07-28T14:18:02.975Z,99220.77
2018-07-28T14:20:38.007Z,99205.03
2018-07-28T14:23:11.796Z,99219.47
2018-07-28T14:25:46.036Z,99225.61
2018-07-28T14:28:20.921Z,99227.60
2018-07-28T14:30:53.902Z,99225.22
2018-07-28T14:33:28.598Z,99232.55
2018-07-28T14:36:03.647Z,99242.62
2018-07-28T14:38:37.361Z,99236.84
2018-07-28T14:41:11.220Z,99238.59
2018-07-28T14:43:44.851Z,99229.02
2018-07-28T14:46:19.050Z,99226.19
2018-07-28T14:48:52.917Z,99229.98
2018-07-28T14:51:29.798Z,99222.67
2018-07-28T14:54:03.679Z,99235.94
2018-07-28T14:56:37.244Z,99240.13
2018-07-28T14:59:11.318Z,99240.01
2018-07-28T15:01:45.110Z,99253.42
2018-07-28T15:04:19.762Z,99258.77
2018-07-28T15:06:52.866Z,99269.42
2018-07-28T15:09:29.442Z,99272.36
2018-07-28T15:12:03.983Z,99267.88
2018-07-28T15:14:39.935Z,99272.28
2018-07-28T15:17:13.527Z,99282.38
2018-07-28T15:19:46.866Z,99291.63
2018-07-28T15:22:20.937Z,99290.27
2018-07-28T15:24:58.188Z,99306.29
2018-07-28T15:27:33.835Z,99304.95
2018-07-28T15:30:10.120Z,99303.66
2018-07-28T15:32:43.797Z,99303.98
2018-07-28T15:35:18.010Z,99297.29
2018-07-28T15:37:53.502Z,99307.17
2018-07-28T15:40:26.793Z,99310.84
2018-07-28T15:43:00.804Z,99314.16
2018-07-28T15:45:36.051Z,99307.58
2018-07-28T15:48:09.830Z,99300.77
2018-07-28T15:50:49.258Z,99310.99
2018-07-28T15:53:23.170Z,99311.55
2018-07-28T15:55:56.524Z,99313.47
2018-07-28T15:58:31.300Z,99313.23
2018-07-28T16:01:08.805Z,99309.61
2018-07-28T16:03:45.331Z,99320.05
2018-07-28T16:06:20.452Z,99319.73
2018-07-28T16:12:05.399Z,99314.19
2018-07-28T16:14:39.614Z,99313.11
2018-07-28T16:17:13.129Z,99311.53
2018-07-28T16:19:47.440Z,99318.60
2018-07-28T16:22:25.256Z,99311.52
2018-07-28T16:25:08.060Z,99327.56
2018-07-28T16:27:43.243Z,99320.84
2018-07-28T16:30:19.671Z,99331.58
2018-07-28T16:32:58.786Z,99323.59
2018-07-28T16:35:32.578Z,99334.11
2018-07-28T16:38:07.710Z,99333.31
2018-07-28T16:40:46.103Z,99331.42
2018-07-28T16:43:19.238Z,99339.70
2018-07-28T16:45:53.576Z,99331.86
2018-07-28T16:48:27.015Z,99340.68
2018-07-28T16:51:02.766Z,99350.12
2018-07-28T16:53:39.783Z,99354.27
2018-07-28T16:56:13.242Z,99355.97
2018-07-28T16:58:48.475Z,99357.66
2018-07-28T17:01:21.987Z,99359.91
2018-07-28T17:03:57.538Z,99370.27
2018-07-28T17:06:33.232Z,99377.37
2018-07-28T17:09:11.790Z,99389.17
2018-07-28T17:11:45.988Z,99392.98
2018-07-28T17:14:22.055Z,99400.82
2018-07-28T17:16:58.671Z,99417.63
2018-07-28T17:19:37.016Z,99419.65
2018-07-28T17:22:11.587Z,99433.73
2018-07-28T17:24:45.557Z,99447.31
2018-07-28T17:27:30.808Z,99452.20
2018-07-28T17:30:23.618Z,99451.73
2018-07-28T17:33:01.283Z,99451.97
2018-07-28T17:36:19.895Z,99461.77
2018-07-28T17:38:56.375Z,99468.88
2018-07-28T17:41:31.243Z,99486.69
2018-07-28T17:44:07.227Z,99472.53
2018-07-28T17:46:55.329Z,99467.19
2018-07-28T17:49:29.171Z,99476.45
2018-07-28T17:52:08.295Z,99486.51
2018-07-28T17:54:45.597Z,99484.03
2018-07-28T17:57:22.140Z,99492.52
2018-07-28T17:59:58.938Z,99494.44
2018-07-28T18:02:36.916Z,99500.09
2018-07-28T18:05:27.447Z,99506.03
2018-07-28T18:08:03.895Z,99502.02
2018-07-28T18:10:37.743Z,99507.84
2018-07-28T18:13:11.825Z,99516.75
2018-07-28T18:15:46.448Z,99520.87
2018-07-28T18:18:20.059Z,99525.08
2018-07-28T18:20:52.982Z,99523.83
2018-07-28T18:23:28.406Z,99528.29
2018-07-28T18:26:01.297Z,99533.58
2018-07-28T18:28:34.218Z,99538.75
2018-07-28T18:31:14.952Z,99531.70
2018-07-28T18:33:49.717Z,99535.84
2018-07-28T18:36:23.051Z,99536.47
2018-07-28T18:38:55.747Z,99540.84
2018-07-28T18:41:30.207Z,99546.43
2018-07-28T18:44:04.866Z,99550.59
2018-07-28T18:46:38.674Z,99555.42
2018-07-28T18:49:11.642Z,99560.45
2018-07-28T18:51:46.902Z,99570.12
2018-07-28T18:54:27.287Z,99570.95
2018-07-28T18:57:02.487Z,99574.20
2018-07-28T18:59:38.206Z,99573.65
2018-07-28T19:02:14.007Z,99573.98
2018-07-28T19:04:55.266Z,99575.86
2018-07-28T19:07:28.731Z,99577.23
2018-07-28T19:10:04.718Z,99567.95
2018-07-28T19:12:42.753Z,99572.70
2018-07-28T19:15:17.153Z,99577.39
2018-07-28T19:18:05.268Z,99579.47
2018-07-28T19:20:39.706Z,99587.70
2018-07-28T19:23:19.511Z,99591.80
2018-07-28T19:25:55.083Z,99598.97
2018-07-28T19:28:33.638Z,99605.31
2018-07-28T19:31:10.733Z,99611.48
2018-07-28T19:33:46.275Z,99618.23
2018-07-28T19:36:24.821Z,99617.35
2018-07-28T19:39:01.360Z,99622.23
2018-07-28T19:41:41.744Z,99629.98
2018-07-28T19:44:24.833Z,99638.97
2018-07-28T19:47:01.873Z,99642.75
2018-07-28T19:49:36.630Z,99649.47
2018-07-28T19:52:14.791Z,99650.82
2018-07-28T19:54:53.792Z,99651.45
2018-07-28T19:57:32.258Z,99654.92
2018-07-28T20:00:07.131Z,99662.89
2018-07-28T20:02:39.844Z,99665.11
2018-07-28T20:05:13.060Z,99666.71
2018-07-28T20:07:48.811Z,99671.81
2018-07-28T20:10:26.433Z,99677.47
2018-07-28T20:13:01.955Z,99685.34
2018-07-28T20:15:35.809Z,99687.52
2018-07-28T20:18:11.506Z,99690.21
2018-07-28T20:20:46.997Z,99693.55
2018-07-28T20:23:35.322Z,99694.30
2018-07-28T20:26:17.662Z,99701.70
2018-07-28T20:28:55.353Z,99700.77
2018-07-28T20:31:33.775Z,99705.91
2018-07-28T20:34:10.177Z,99711.16
2018-07-28T20:36:46.327Z,99715.19
2018-07-28T20:39:23.931Z,99717.78
2018-07-28T20:41:59.477Z,99722.52
2018-07-28T20:44:37.492Z,99723.63
2018-07-28T20:47:14.466Z,99724.80
2018-07-28T20:49:48.355Z,99727.11
2018-07-28T20:52:25.322Z,99733.80
2018-07-28T20:55:02.304Z,99737.16
2018-07-28T20:57:38.298Z,99742.35
2018-07-28T21:00:15.870Z,99741.13
2018-07-28T21:02:51.686Z,99743.23
2018-07-28T21:05:34.859Z,99747.22
2018-07-28T21:08:12.051Z,99752.77
2018-07-28T21:10:46.472Z,99748.38
2018-07-28T21:13:21.084Z,99746.51
2018-07-28T21:15:59.566Z,99751.24
2018-07-28T21:18:38.042Z,99753.03
2018-07-28T21:21:12.482Z,99759.84
2018-07-28T21:23:47.474Z,99759.50
2018-07-28T21:26:24.321Z,99759.69
2018-07-28T21:28:57.681Z,99762.00
2018-07-28T21:31:31.328Z,99763.72
2018-07-28T21:34:05.660Z,99772.55
2018-07-28T21:36:40.820Z,99770.59
2018-07-28T21:39:14.386Z,99779.09
2018-07-28T21:41:49.475Z,99777.37
2018-07-28T21:44:22.203Z,99776.96
2018-07-28T21:46:59.136Z,99778.44
2018-07-28T21:49:34.745Z,99785.14
2018-07-28T21:52:07.982Z,99784.00
2018-07-28T21:54:42.649Z,99784.66
2018-07-28T21:57:16.995Z,99786.16
2018-07-28T21:59:50.487Z,99788.73
2018-07-28T22:02:24.135Z,99792.48
2018-07-28T22:05:00.349Z,99797.70
2018-07-28T22:07:33.435Z,99796.95
2018-07-28T22:10:07.074Z,99801.52
2018-07-28T22:12:42.718Z,99802.45
2018-07-28T22:15:16.508Z,99806.42
2018-07-28T22:17:49.879Z,99811.37
2018-07-28T22:20:26.215Z,99821.52
2018-07-28T22:22:59.898Z,99824.64
2018-07-28T22:25:34.164Z,99821.04
2018-07-28T22:28:08.209Z,99824.21
2018-07-28T22:30:44.310Z,99832.83
2018-07-28T22:33:17.901Z,99830.48
2018-07-28T22:35:52.481Z,99835.85
2018-07-28T22:38:26.250Z,99837.09
2018-07-28T22:41:01.315Z,99840.80
2018-07-28T22:43:34.359Z,99848.85
2018-07-28T22:46:07.933Z,99848.82
2018-07-28T22:48:42.203Z,99851.53
2018-07-28T22:51:20.194Z,99854.41
2018-07-28T22:53:53.598Z,99842.38
2018-07-28T22:56:32.205Z,99837.98
2018-07-28T22:59:06.161Z,99835.72
2018-07-28T23:01:39.510Z,99834.66
2018-07-28T23:04:12.332Z,99828.75
2018-07-28T23:06:45.176Z,99834.16
2018-07-28T23:09:19.974Z,99832.47
2018-07-28T23:11:55.747Z,99826.97
2018-07-28T23:14:28.491Z,99829.28
2018-07-28T23:17:02.722Z,99830.67
2018-07-28T23:19:40.929Z,99833.59
2018-07-28T23:22:15.698Z,99828.88
2018-07-28T23:24:49.492Z,99826.44
2018-07-28T23:27:23.474Z,99827.81
2018-07-28T23:29:57.287Z,99832.55
2018-07-28T23:32:30.308Z,99836.26
2018-07-28T23:35:05.664Z,99840.59
2018-07-28T23:37:40.056Z,99848.42
2018-07-28T23:40:12.736Z,99851.55
2018-07-28T23:42:48.003Z,99851.55
2018-07-28T23:45:22.475Z,99851.45
2018-07-28T23:47:56.164Z,99852.81
2018-07-28T23:50:31.627Z,99859.93
2018-07-28T23:53:12.078Z,99867.71
2018-07-28T23:55:44.718Z,99869.02
2018-07-28T23:58:18.712Z,99866.66
